sensor_id;sensor_type;location;lat;lon;timestamp;P1;durP1;ratioP1;P2;durP2;ratioP2
37305;SDS011;23193;42.656;21.170;2024-03-23T00:53:16;87.88;;;34.83;;
37305;SDS011;23193;42.656;21.170;2024-03-23T00:55:42;73.28;;;33.38;;
37305;SDS011;23193;42.656;21.170;2024-03-23T00:58:08;74.38;;;33.20;;
37305;SDS011;23193;42.656;21.170;2024-03-23T01:00:34;79.63;;;34.75;;
37305;SDS011;23193;42.656;21.170;2024-03-23T01:03:00;75.60;;;34.97;;
37305;SDS011;23193;42.656;21.170;2024-03-23T01:05:26;78.43;;;35.83;;
37305;SDS011;23193;42.656;21.170;2024-03-23T01:07:52;67.53;;;33.83;;
37305;SDS011;23193;42.656;21.170;2024-03-23T01:10:18;64.25;;;29.38;;
37305;SDS011;23193;42.656;21.170;2024-03-23T01:12:44;63.05;;;31.45;;
37305;SDS011;23193;42.656;21.170;2024-03-23T01:15:10;73.82;;;31.17;;
37305;SDS011;23193;42.656;21.170;2024-03-23T01:17:36;74.28;;;31.42;;
37305;SDS011;23193;42.656;21.170;2024-03-23T01:20:02;72.97;;;32.80;;
37305;SDS011;23193;42.656;21.170;2024-03-23T01:22:28;71.63;;;31.83;;
37305;SDS011;23193;42.656;21.170;2024-03-23T01:24:54;74.25;;;32.55;;
37305;SDS011;23193;42.656;21.170;2024-03-23T01:27:20;72.45;;;30.98;;
37305;SDS011;23193;42.656;21.170;2024-03-23T01:29:46;81.30;;;31.55;;
37305;SDS011;23193;42.656;21.170;2024-03-23T01:32:13;67.55;;;30.23;;
37305;SDS011;23193;42.656;21.170;2024-03-23T01:34:39;73.78;;;31.52;;
37305;SDS011;23193;42.656;21.170;2024-03-23T01:37:05;64.25;;;28.10;;
37305;SDS011;23193;42.656;21.170;2024-03-23T01:39:31;74.65;;;29.45;;
37305;SDS011;23193;42.656;21.170;2024-03-23T01:41:56;52.35;;;25.52;;
37305;SDS011;23193;42.656;21.170;2024-03-23T01:44:23;56.42;;;25.65;;
37305;SDS011;23193;42.656;21.170;2024-03-23T01:46:49;61.53;;;26.20;;
37305;SDS011;23193;42.656;21.170;2024-03-23T01:49:15;54.97;;;26.00;;
37305;SDS011;23193;42.656;21.170;2024-03-23T01:51:41;64.40;;;25.65;;
37305;SDS011;23193;42.656;21.170;2024-03-23T01:54:07;58.08;;;25.17;;
37305;SDS011;23193;42.656;21.170;2024-03-23T01:56:33;62.17;;;26.98;;
37305;SDS011;23193;42.656;21.170;2024-03-23T01:59:02;51.17;;;25.55;;
37305;SDS011;23193;42.656;21.170;2024-03-23T02:01:28;57.75;;;26.98;;
37305;SDS011;23193;42.656;21.170;2024-03-23T02:03:55;54.60;;;25.65;;
37305;SDS011;23193;42.656;21.170;2024-03-23T02:06:21;57.78;;;24.35;;
37305;SDS011;23193;42.656;21.170;2024-03-23T02:08:47;58.10;;;24.00;;
37305;SDS011;23193;42.656;21.170;2024-03-23T02:11:14;53.28;;;24.27;;
37305;SDS011;23193;42.656;21.170;2024-03-23T02:13:40;54.55;;;24.85;;
37305;SDS011;23193;42.656;21.170;2024-03-23T02:16:06;50.50;;;24.42;;
37305;SDS011;23193;42.656;21.170;2024-03-23T02:18:32;64.60;;;25.58;;
37305;SDS011;23193;42.656;21.170;2024-03-23T02:20:58;55.15;;;23.90;;
37305;SDS011;23193;42.656;21.170;2024-03-23T02:23:24;62.78;;;24.45;;
37305;SDS011;23193;42.656;21.170;2024-03-23T02:25:50;51.97;;;24.92;;
37305;SDS011;23193;42.656;21.170;2024-03-23T02:28:16;54.67;;;22.90;;
37305;SDS011;23193;42.656;21.170;2024-03-23T02:30:43;52.35;;;23.35;;
37305;SDS011;23193;42.656;21.170;2024-03-23T02:33:08;50.58;;;24.88;;
37305;SDS011;23193;42.656;21.170;2024-03-23T02:35:34;57.00;;;25.83;;
37305;SDS011;23193;42.656;21.170;2024-03-23T02:38:00;58.75;;;24.40;;
37305;SDS011;23193;42.656;21.170;2024-03-23T02:40:28;51.65;;;24.65;;
37305;SDS011;23193;42.656;21.170;2024-03-23T02:42:54;54.20;;;24.05;;
37305;SDS011;23193;42.656;21.170;2024-03-23T02:45:21;64.68;;;24.40;;
37305;SDS011;23193;42.656;21.170;2024-03-23T02:47:47;53.42;;;24.13;;
37305;SDS011;23193;42.656;21.170;2024-03-23T02:50:13;50.90;;;23.95;;
37305;SDS011;23193;42.656;21.170;2024-03-23T02:52:40;50.83;;;23.75;;
37305;SDS011;23193;42.656;21.170;2024-03-23T02:55:06;51.25;;;24.85;;
37305;SDS011;23193;42.656;21.170;2024-03-23T02:57:32;55.88;;;22.35;;
37305;SDS011;23193;42.656;21.170;2024-03-23T02:59:58;48.95;;;21.85;;
37305;SDS011;23193;42.656;21.170;2024-03-23T03:02:24;55.28;;;22.45;;
37305;SDS011;23193;42.656;21.170;2024-03-23T03:04:50;50.55;;;20.83;;
37305;SDS011;23193;42.656;21.170;2024-03-23T03:07:16;46.95;;;21.55;;
37305;SDS011;23193;42.656;21.170;2024-03-23T03:09:42;49.72;;;22.90;;
37305;SDS011;23193;42.656;21.170;2024-03-23T03:12:08;45.42;;;19.45;;
37305;SDS011;23193;42.656;21.170;2024-03-23T03:14:34;51.85;;;21.92;;
37305;SDS011;23193;42.656;21.170;2024-03-23T03:17:00;48.40;;;20.13;;
37305;SDS011;23193;42.656;21.170;2024-03-23T03:19:26;47.10;;;20.98;;
37305;SDS011;23193;42.656;21.170;2024-03-23T03:21:53;51.58;;;21.75;;
37305;SDS011;23193;42.656;21.170;2024-03-23T03:24:19;60.60;;;21.83;;
37305;SDS011;23193;42.656;21.170;2024-03-23T03:26:45;52.78;;;21.90;;
37305;SDS011;23193;42.656;21.170;2024-03-23T03:29:11;41.28;;;20.33;;
37305;SDS011;23193;42.656;21.170;2024-03-23T03:31:37;44.90;;;20.63;;
37305;SDS011;23193;42.656;21.170;2024-03-23T03:34:03;49.63;;;23.67;;
37305;SDS011;23193;42.656;21.170;2024-03-23T03:36:29;46.75;;;22.45;;
37305;SDS011;23193;42.656;21.170;2024-03-23T03:38:55;55.58;;;21.63;;
37305;SDS011;23193;42.656;21.170;2024-03-23T03:41:21;50.47;;;21.90;;
37305;SDS011;23193;42.656;21.170;2024-03-23T03:43:47;32.50;;;15.55;;
37305;SDS011;23193;42.656;21.170;2024-03-23T03:46:13;33.70;;;14.95;;
37305;SDS011;23193;42.656;21.170;2024-03-23T03:48:39;40.58;;;16.35;;
37305;SDS011;23193;42.656;21.170;2024-03-23T03:51:05;31.55;;;14.75;;
37305;SDS011;23193;42.656;21.170;2024-03-23T03:53:32;35.70;;;17.50;;
37305;SDS011;23193;42.656;21.170;2024-03-23T03:56:01;40.20;;;18.27;;
37305;SDS011;23193;42.656;21.170;2024-03-23T03:58:28;41.23;;;16.17;;
37305;SDS011;23193;42.656;21.170;2024-03-23T04:00:54;37.28;;;18.67;;
37305;SDS011;23193;42.656;21.170;2024-03-23T04:03:20;47.88;;;18.42;;
37305;SDS011;23193;42.656;21.170;2024-03-23T04:05:52;37.00;;;18.77;;
37305;SDS011;23193;42.656;21.170;2024-03-23T04:08:19;43.83;;;19.80;;
37305;SDS011;23193;42.656;21.170;2024-03-23T04:10:45;50.92;;;20.52;;
37305;SDS011;23193;42.656;21.170;2024-03-23T04:13:12;47.97;;;19.98;;
37305;SDS011;23193;42.656;21.170;2024-03-23T04:15:38;50.90;;;22.95;;
37305;SDS011;23193;42.656;21.170;2024-03-23T04:18:04;46.30;;;21.02;;
37305;SDS011;23193;42.656;21.170;2024-03-23T04:20:30;41.15;;;19.05;;
37305;SDS011;23193;42.656;21.170;2024-03-23T04:22:56;44.35;;;20.60;;
37305;SDS011;23193;42.656;21.170;2024-03-23T04:25:21;39.45;;;19.38;;
37305;SDS011;23193;42.656;21.170;2024-03-23T04:27:47;44.35;;;20.38;;
37305;SDS011;23193;42.656;21.170;2024-03-23T04:30:13;43.63;;;20.13;;
37305;SDS011;23193;42.656;21.170;2024-03-23T04:32:41;43.42;;;20.58;;
37305;SDS011;23193;42.656;21.170;2024-03-23T04:35:07;40.95;;;20.17;;
37305;SDS011;23193;42.656;21.170;2024-03-23T04:37:37;35.97;;;20.23;;
37305;SDS011;23193;42.656;21.170;2024-03-23T04:40:03;41.55;;;19.65;;
37305;SDS011;23193;42.656;21.170;2024-03-23T04:42:30;35.00;;;16.75;;
37305;SDS011;23193;42.656;21.170;2024-03-23T04:44:56;36.10;;;17.45;;
37305;SDS011;23193;42.656;21.170;2024-03-23T04:47:23;41.25;;;17.20;;
37305;SDS011;23193;42.656;21.170;2024-03-23T04:49:48;43.03;;;20.00;;
37305;SDS011;23193;42.656;21.170;2024-03-23T04:52:15;46.85;;;23.42;;
37305;SDS011;23193;42.656;21.170;2024-03-23T04:54:42;47.78;;;24.20;;
37305;SDS011;23193;42.656;21.170;2024-03-23T04:57:08;51.15;;;24.83;;
37305;SDS011;23193;42.656;21.170;2024-03-23T04:59:34;42.63;;;22.25;;
37305;SDS011;23193;42.656;21.170;2024-03-23T05:02:00;51.47;;;23.17;;
37305;SDS011;23193;42.656;21.170;2024-03-23T05:04:26;45.92;;;23.35;;
37305;SDS011;23193;42.656;21.170;2024-03-23T05:06:53;44.72;;;23.30;;
37305;SDS011;23193;42.656;21.170;2024-03-23T05:09:19;54.88;;;24.05;;
37305;SDS011;23193;42.656;21.170;2024-03-23T05:11:45;52.63;;;24.88;;
37305;SDS011;23193;42.656;21.170;2024-03-23T05:14:14;51.10;;;24.00;;
37305;SDS011;23193;42.656;21.170;2024-03-23T05:16:40;51.47;;;24.35;;
37305;SDS011;23193;42.656;21.170;2024-03-23T05:19:06;56.45;;;24.67;;
37305;SDS011;23193;42.656;21.170;2024-03-23T05:21:32;53.65;;;23.20;;
37305;SDS011;23193;42.656;21.170;2024-03-23T05:23:58;43.17;;;20.30;;
37305;SDS011;23193;42.656;21.170;2024-03-23T05:26:24;40.67;;;19.35;;
37305;SDS011;23193;42.656;21.170;2024-03-23T05:28:50;36.35;;;18.20;;
37305;SDS011;23193;42.656;21.170;2024-03-23T05:31:23;37.13;;;17.40;;
37305;SDS011;23193;42.656;21.170;2024-03-23T05:33:49;39.40;;;18.23;;
37305;SDS011;23193;42.656;21.170;2024-03-23T05:36:15;39.53;;;18.02;;
37305;SDS011;23193;42.656;21.170;2024-03-23T05:38:42;38.55;;;18.58;;
37305;SDS011;23193;42.656;21.170;2024-03-23T05:41:08;43.70;;;17.35;;
37305;SDS011;23193;42.656;21.170;2024-03-23T05:43:35;40.80;;;18.58;;
37305;SDS011;23193;42.656;21.170;2024-03-23T05:46:01;35.78;;;17.52;;
37305;SDS011;23193;42.656;21.170;2024-03-23T05:48:28;35.80;;;17.50;;
37305;SDS011;23193;42.656;21.170;2024-03-23T05:50:55;38.53;;;16.98;;
37305;SDS011;23193;42.656;21.170;2024-03-23T05:53:21;39.08;;;16.88;;
37305;SDS011;23193;42.656;21.170;2024-03-23T06:01:05;44.08;;;15.18;;
37305;SDS011;23193;42.656;21.170;2024-03-23T06:03:31;38.42;;;16.17;;
37305;SDS011;23193;42.656;21.170;2024-03-23T06:05:57;37.50;;;15.90;;
37305;SDS011;23193;42.656;21.170;2024-03-23T06:08:23;33.85;;;15.80;;
37305;SDS011;23193;42.656;21.170;2024-03-23T06:10:50;33.03;;;14.95;;
37305;SDS011;23193;42.656;21.170;2024-03-23T06:13:16;36.10;;;13.88;;
37305;SDS011;23193;42.656;21.170;2024-03-23T06:15:43;38.88;;;16.08;;
37305;SDS011;23193;42.656;21.170;2024-03-23T06:18:09;28.15;;;12.88;;
37305;SDS011;23193;42.656;21.170;2024-03-23T06:20:35;28.00;;;13.60;;
37305;SDS011;23193;42.656;21.170;2024-03-23T06:23:01;29.88;;;12.98;;
37305;SDS011;23193;42.656;21.170;2024-03-23T06:25:30;25.65;;;11.40;;
37305;SDS011;23193;42.656;21.170;2024-03-23T06:27:56;33.55;;;14.88;;
37305;SDS011;23193;42.656;21.170;2024-03-23T06:30:24;29.45;;;14.18;;
37305;SDS011;23193;42.656;21.170;2024-03-23T06:32:50;29.63;;;13.82;;
37305;SDS011;23193;42.656;21.170;2024-03-23T06:35:16;28.98;;;14.23;;
37305;SDS011;23193;42.656;21.170;2024-03-23T06:37:42;29.60;;;13.70;;
37305;SDS011;23193;42.656;21.170;2024-03-23T06:40:08;27.55;;;14.00;;
37305;SDS011;23193;42.656;21.170;2024-03-23T06:42:35;36.85;;;13.23;;
37305;SDS011;23193;42.656;21.170;2024-03-23T06:45:02;27.30;;;12.45;;
37305;SDS011;23193;42.656;21.170;2024-03-23T06:47:30;38.55;;;14.95;;
37305;SDS011;23193;42.656;21.170;2024-03-23T06:49:56;37.85;;;15.30;;
37305;SDS011;23193;42.656;21.170;2024-03-23T06:52:22;32.85;;;14.93;;
37305;SDS011;23193;42.656;21.170;2024-03-23T06:54:48;31.48;;;13.27;;
37305;SDS011;23193;42.656;21.170;2024-03-23T06:57:14;30.95;;;14.43;;
37305;SDS011;23193;42.656;21.170;2024-03-23T06:59:40;27.75;;;11.57;;
37305;SDS011;23193;42.656;21.170;2024-03-23T07:02:06;23.17;;;11.85;;
37305;SDS011;23193;42.656;21.170;2024-03-23T07:04:34;28.55;;;11.85;;
37305;SDS011;23193;42.656;21.170;2024-03-23T07:07:00;22.02;;;12.52;;
37305;SDS011;23193;42.656;21.170;2024-03-23T07:09:27;21.23;;;11.02;;
37305;SDS011;23193;42.656;21.170;2024-03-23T07:11:54;27.90;;;11.52;;
37305;SDS011;23193;42.656;21.170;2024-03-23T07:14:21;28.00;;;13.63;;
37305;SDS011;23193;42.656;21.170;2024-03-23T07:16:47;25.73;;;12.23;;
37305;SDS011;23193;42.656;21.170;2024-03-23T07:19:15;22.17;;;11.82;;
37305;SDS011;23193;42.656;21.170;2024-03-23T07:21:42;22.10;;;11.40;;
37305;SDS011;23193;42.656;21.170;2024-03-23T07:24:08;28.77;;;11.25;;
37305;SDS011;23193;42.656;21.170;2024-03-23T07:26:34;29.65;;;12.73;;
37305;SDS011;23193;42.656;21.170;2024-03-23T07:29:00;33.28;;;12.43;;
37305;SDS011;23193;42.656;21.170;2024-03-23T07:31:26;25.35;;;11.88;;
37305;SDS011;23193;42.656;21.170;2024-03-23T07:33:52;30.75;;;12.82;;
37305;SDS011;23193;42.656;21.170;2024-03-23T07:36:18;26.38;;;12.82;;
37305;SDS011;23193;42.656;21.170;2024-03-23T07:38:44;26.40;;;12.73;;
37305;SDS011;23193;42.656;21.170;2024-03-23T07:41:19;22.52;;;11.70;;
37305;SDS011;23193;42.656;21.170;2024-03-23T07:43:46;28.27;;;13.00;;
37305;SDS011;23193;42.656;21.170;2024-03-23T07:46:12;33.50;;;13.55;;
37305;SDS011;23193;42.656;21.170;2024-03-23T07:48:39;30.33;;;12.18;;
37305;SDS011;23193;42.656;21.170;2024-03-23T07:51:09;29.08;;;12.00;;
37305;SDS011;23193;42.656;21.170;2024-03-23T07:53:36;30.50;;;12.48;;
37305;SDS011;23193;42.656;21.170;2024-03-23T07:56:05;29.10;;;13.82;;
37305;SDS011;23193;42.656;21.170;2024-03-23T07:58:31;30.75;;;12.68;;
37305;SDS011;23193;42.656;21.170;2024-03-23T08:01:03;23.60;;;12.70;;
37305;SDS011;23193;42.656;21.170;2024-03-23T08:03:29;32.20;;;13.43;;
37305;SDS011;23193;42.656;21.170;2024-03-23T08:05:55;30.83;;;13.50;;
37305;SDS011;23193;42.656;21.170;2024-03-23T08:08:21;35.47;;;13.90;;
37305;SDS011;23193;42.656;21.170;2024-03-23T08:10:50;29.95;;;13.35;;
37305;SDS011;23193;42.656;21.170;2024-03-23T08:13:17;35.67;;;12.48;;
37305;SDS011;23193;42.656;21.170;2024-03-23T08:15:43;24.45;;;12.77;;
37305;SDS011;23193;42.656;21.170;2024-03-23T08:18:10;26.25;;;13.98;;
37305;SDS011;23193;42.656;21.170;2024-03-23T08:20:36;34.33;;;14.07;;
37305;SDS011;23193;42.656;21.170;2024-03-23T08:23:03;28.67;;;13.05;;
37305;SDS011;23193;42.656;21.170;2024-03-23T08:25:33;30.35;;;14.15;;
37305;SDS011;23193;42.656;21.170;2024-03-23T08:28:00;25.10;;;13.40;;
37305;SDS011;23193;42.656;21.170;2024-03-23T08:30:26;28.20;;;11.38;;
37305;SDS011;23193;42.656;21.170;2024-03-23T08:32:52;28.92;;;13.10;;
37305;SDS011;23193;42.656;21.170;2024-03-23T08:35:18;25.60;;;11.52;;
37305;SDS011;23193;42.656;21.170;2024-03-23T08:37:44;23.25;;;11.52;;
37305;SDS011;23193;42.656;21.170;2024-03-23T08:40:10;28.65;;;12.93;;
37305;SDS011;23193;42.656;21.170;2024-03-23T08:42:36;23.35;;;11.43;;
37305;SDS011;23193;42.656;21.170;2024-03-23T08:45:02;33.05;;;11.98;;
37305;SDS011;23193;42.656;21.170;2024-03-23T08:47:28;25.13;;;11.57;;
37305;SDS011;23193;42.656;21.170;2024-03-23T08:49:54;35.50;;;10.80;;
37305;SDS011;23193;42.656;21.170;2024-03-23T08:52:21;26.27;;;11.43;;
37305;SDS011;23193;42.656;21.170;2024-03-23T08:54:48;23.63;;;11.55;;
37305;SDS011;23193;42.656;21.170;2024-03-23T08:57:14;22.88;;;10.98;;
37305;SDS011;23193;42.656;21.170;2024-03-23T08:59:40;26.08;;;11.82;;
37305;SDS011;23193;42.656;21.170;2024-03-23T09:02:06;50.33;;;11.38;;
37305;SDS011;23193;42.656;21.170;2024-03-23T09:04:36;29.70;;;12.70;;
37305;SDS011;23193;42.656;21.170;2024-03-23T09:07:02;30.00;;;11.60;;
37305;SDS011;23193;42.656;21.170;2024-03-23T09:09:28;26.48;;;12.07;;
37305;SDS011;23193;42.656;21.170;2024-03-23T09:11:55;34.78;;;12.13;;
37305;SDS011;23193;42.656;21.170;2024-03-23T09:14:21;26.33;;;11.75;;
37305;SDS011;23193;42.656;21.170;2024-03-23T09:16:51;26.73;;;12.02;;
37305;SDS011;23193;42.656;21.170;2024-03-23T09:19:17;42.97;;;13.98;;
37305;SDS011;23193;42.656;21.170;2024-03-23T09:21:43;29.20;;;11.13;;
37305;SDS011;23193;42.656;21.170;2024-03-23T09:24:09;23.42;;;10.75;;
37305;SDS011;23193;42.656;21.170;2024-03-23T09:26:35;27.90;;;12.63;;
37305;SDS011;23193;42.656;21.170;2024-03-23T09:29:01;32.42;;;12.07;;
37305;SDS011;23193;42.656;21.170;2024-03-23T09:31:27;33.42;;;13.05;;
37305;SDS011;23193;42.656;21.170;2024-03-23T09:33:53;28.17;;;13.10;;
37305;SDS011;23193;42.656;21.170;2024-03-23T09:36:19;28.60;;;12.63;;
37305;SDS011;23193;42.656;21.170;2024-03-23T09:38:45;28.38;;;14.57;;
37305;SDS011;23193;42.656;21.170;2024-03-23T09:41:12;32.42;;;13.98;;
37305;SDS011;23193;42.656;21.170;2024-03-23T09:43:40;38.83;;;12.90;;
37305;SDS011;23193;42.656;21.170;2024-03-23T09:46:06;32.03;;;12.40;;
37305;SDS011;23193;42.656;21.170;2024-03-23T09:48:32;38.03;;;13.20;;
37305;SDS011;23193;42.656;21.170;2024-03-23T09:50:58;25.27;;;12.43;;
37305;SDS011;23193;42.656;21.170;2024-03-23T09:53:24;28.63;;;12.38;;
37305;SDS011;23193;42.656;21.170;2024-03-23T09:55:51;23.48;;;12.45;;
37305;SDS011;23193;42.656;21.170;2024-03-23T09:58:17;24.85;;;12.65;;
37305;SDS011;23193;42.656;21.170;2024-03-23T10:00:44;22.50;;;11.40;;
37305;SDS011;23193;42.656;21.170;2024-03-23T10:03:10;24.25;;;11.60;;
37305;SDS011;23193;42.656;21.170;2024-03-23T10:05:37;36.60;;;15.88;;
37305;SDS011;23193;42.656;21.170;2024-03-23T10:10:41;25.20;;;11.40;;
37305;SDS011;23193;42.656;21.170;2024-03-23T10:13:07;26.00;;;11.85;;
37305;SDS011;23193;42.656;21.170;2024-03-23T10:15:34;23.63;;;10.45;;
37305;SDS011;23193;42.656;21.170;2024-03-23T10:20:41;23.50;;;11.15;;
37305;SDS011;23193;42.656;21.170;2024-03-23T10:23:15;28.85;;;10.55;;
37305;SDS011;23193;42.656;21.170;2024-03-23T10:25:42;22.52;;;10.57;;
37305;SDS011;23193;42.656;21.170;2024-03-23T10:28:08;22.40;;;8.57;;
37305;SDS011;23193;42.656;21.170;2024-03-23T10:30:35;18.80;;;10.32;;
37305;SDS011;23193;42.656;21.170;2024-03-23T10:33:07;20.30;;;9.55;;
37305;SDS011;23193;42.656;21.170;2024-03-23T10:35:34;26.27;;;9.40;;
37305;SDS011;23193;42.656;21.170;2024-03-23T10:38:02;19.30;;;8.57;;
37305;SDS011;23193;42.656;21.170;2024-03-23T10:40:28;18.55;;;8.57;;
37305;SDS011;23193;42.656;21.170;2024-03-23T10:42:55;28.30;;;11.18;;
37305;SDS011;23193;42.656;21.170;2024-03-23T10:45:28;20.33;;;8.45;;
37305;SDS011;23193;42.656;21.170;2024-03-23T10:47:55;18.80;;;8.82;;
37305;SDS011;23193;42.656;21.170;2024-03-23T10:50:22;20.33;;;8.93;;
37305;SDS011;23193;42.656;21.170;2024-03-23T10:52:48;20.05;;;7.75;;
37305;SDS011;23193;42.656;21.170;2024-03-23T10:55:15;20.38;;;8.55;;
37305;SDS011;23193;42.656;21.170;2024-03-23T10:58:04;17.90;;;8.30;;
37305;SDS011;23193;42.656;21.170;2024-03-23T11:00:29;22.13;;;8.48;;
37305;SDS011;23193;42.656;21.170;2024-03-23T11:02:55;17.65;;;8.57;;
37305;SDS011;23193;42.656;21.170;2024-03-23T11:05:28;19.15;;;9.35;;
37305;SDS011;23193;42.656;21.170;2024-03-23T11:07:54;19.52;;;7.60;;
37305;SDS011;23193;42.656;21.170;2024-03-23T11:10:30;16.00;;;7.32;;
37305;SDS011;23193;42.656;21.170;2024-03-23T11:12:57;17.48;;;7.35;;
37305;SDS011;23193;42.656;21.170;2024-03-23T11:15:23;20.90;;;6.95;;
37305;SDS011;23193;42.656;21.170;2024-03-23T11:18:05;13.95;;;6.63;;
37305;SDS011;23193;42.656;21.170;2024-03-23T11:20:34;11.57;;;6.05;;
37305;SDS011;23193;42.656;21.170;2024-03-23T11:23:00;12.10;;;5.65;;
37305;SDS011;23193;42.656;21.170;2024-03-23T11:25:27;11.45;;;5.32;;
37305;SDS011;23193;42.656;21.170;2024-03-23T11:27:54;14.73;;;5.63;;
37305;SDS011;23193;42.656;21.170;2024-03-23T11:30:24;15.95;;;6.25;;
37305;SDS011;23193;42.656;21.170;2024-03-23T11:32:51;12.63;;;5.88;;
37305;SDS011;23193;42.656;21.170;2024-03-23T11:40:36;8.10;;;4.65;;
37305;SDS011;23193;42.656;21.170;2024-03-23T11:43:04;11.63;;;5.85;;
37305;SDS011;23193;42.656;21.170;2024-03-23T11:45:34;11.77;;;5.70;;
37305;SDS011;23193;42.656;21.170;2024-03-23T11:48:01;15.15;;;6.75;;
37305;SDS011;23193;42.656;21.170;2024-03-23T11:50:27;11.75;;;5.53;;
37305;SDS011;23193;42.656;21.170;2024-03-23T11:53:01;10.38;;;4.60;;
37305;SDS011;23193;42.656;21.170;2024-03-23T11:55:38;12.48;;;6.20;;
37305;SDS011;23193;42.656;21.170;2024-03-23T11:58:04;11.93;;;6.38;;
37305;SDS011;23193;42.656;21.170;2024-03-23T12:00:30;9.88;;;5.30;;
37305;SDS011;23193;42.656;21.170;2024-03-23T12:03:01;12.88;;;5.03;;
37305;SDS011;23193;42.656;21.170;2024-03-23T12:05:28;10.85;;;5.50;;
37305;SDS011;23193;42.656;21.170;2024-03-23T12:07:54;16.63;;;5.47;;
37305;SDS011;23193;42.656;21.170;2024-03-23T12:10:20;11.45;;;5.35;;
37305;SDS011;23193;42.656;21.170;2024-03-23T12:12:46;15.30;;;5.60;;
37305;SDS011;23193;42.656;21.170;2024-03-23T12:15:12;13.90;;;5.38;;
37305;SDS011;23193;42.656;21.170;2024-03-23T12:17:40;15.25;;;4.60;;
37305;SDS011;23193;42.656;21.170;2024-03-23T12:20:06;17.95;;;5.63;;
37305;SDS011;23193;42.656;21.170;2024-03-23T12:22:32;13.38;;;5.40;;
37305;SDS011;23193;42.656;21.170;2024-03-23T12:25:00;11.30;;;4.78;;
37305;SDS011;23193;42.656;21.170;2024-03-23T12:27:26;9.25;;;4.20;;
37305;SDS011;23193;42.656;21.170;2024-03-23T12:29:52;9.85;;;4.88;;
37305;SDS011;23193;42.656;21.170;2024-03-23T12:32:18;11.77;;;4.70;;
37305;SDS011;23193;42.656;21.170;2024-03-23T12:34:44;8.43;;;4.38;;
37305;SDS011;23193;42.656;21.170;2024-03-23T12:37:10;9.63;;;4.25;;
37305;SDS011;23193;42.656;21.170;2024-03-23T12:39:38;15.95;;;6.40;;
37305;SDS011;23193;42.656;21.170;2024-03-23T12:42:04;10.38;;;4.22;;
37305;SDS011;23193;42.656;21.170;2024-03-23T12:44:30;13.02;;;4.28;;
37305;SDS011;23193;42.656;21.170;2024-03-23T12:46:57;8.02;;;4.53;;
37305;SDS011;23193;42.656;21.170;2024-03-23T12:49:23;9.18;;;4.10;;
37305;SDS011;23193;42.656;21.170;2024-03-23T12:51:53;8.68;;;3.90;;
37305;SDS011;23193;42.656;21.170;2024-03-23T12:54:21;6.13;;;3.72;;
37305;SDS011;23193;42.656;21.170;2024-03-23T12:56:47;6.88;;;3.63;;
37305;SDS011;23193;42.656;21.170;2024-03-23T12:59:13;7.95;;;4.10;;
37305;SDS011;23193;42.656;21.170;2024-03-23T13:01:39;8.40;;;3.78;;
37305;SDS011;23193;42.656;21.170;2024-03-23T13:04:05;7.80;;;3.70;;
37305;SDS011;23193;42.656;21.170;2024-03-23T13:06:31;13.55;;;4.57;;
37305;SDS011;23193;42.656;21.170;2024-03-23T13:09:01;5.85;;;3.60;;
37305;SDS011;23193;42.656;21.170;2024-03-23T13:11:27;7.03;;;3.50;;
37305;SDS011;23193;42.656;21.170;2024-03-23T13:13:54;12.05;;;3.90;;
37305;SDS011;23193;42.656;21.170;2024-03-23T13:16:20;5.60;;;3.60;;
37305;SDS011;23193;42.656;21.170;2024-03-23T13:18:46;13.52;;;4.20;;
37305;SDS011;23193;42.656;21.170;2024-03-23T13:21:12;12.07;;;4.20;;
37305;SDS011;23193;42.656;21.170;2024-03-23T13:23:38;11.15;;;5.50;;
37305;SDS011;23193;42.656;21.170;2024-03-23T13:26:07;8.00;;;4.30;;
37305;SDS011;23193;42.656;21.170;2024-03-23T13:28:33;8.52;;;3.90;;
37305;SDS011;23193;42.656;21.170;2024-03-23T13:30:59;14.02;;;4.03;;
37305;SDS011;23193;42.656;21.170;2024-03-23T13:33:29;10.80;;;4.53;;
37305;SDS011;23193;42.656;21.170;2024-03-23T13:35:56;5.63;;;3.40;;
37305;SDS011;23193;42.656;21.170;2024-03-23T13:38:22;10.70;;;3.95;;
37305;SDS011;23193;42.656;21.170;2024-03-23T13:40:52;7.75;;;3.90;;
37305;SDS011;23193;42.656;21.170;2024-03-23T13:43:18;11.05;;;3.53;;
37305;SDS011;23193;42.656;21.170;2024-03-23T13:45:44;15.63;;;3.72;;
37305;SDS011;23193;42.656;21.170;2024-03-23T13:48:10;6.20;;;3.42;;
37305;SDS011;23193;42.656;21.170;2024-03-23T13:50:36;10.63;;;4.18;;
37305;SDS011;23193;42.656;21.170;2024-03-23T13:53:02;16.80;;;3.80;;
37305;SDS011;23193;42.656;21.170;2024-03-23T13:55:29;10.02;;;4.20;;
37305;SDS011;23193;42.656;21.170;2024-03-23T13:57:55;12.88;;;5.00;;
37305;SDS011;23193;42.656;21.170;2024-03-23T14:00:21;10.13;;;4.28;;
37305;SDS011;23193;42.656;21.170;2024-03-23T14:02:48;9.35;;;3.92;;
37305;SDS011;23193;42.656;21.170;2024-03-23T14:05:14;9.38;;;3.67;;
37305;SDS011;23193;42.656;21.170;2024-03-23T14:07:40;11.32;;;4.07;;
37305;SDS011;23193;42.656;21.170;2024-03-23T14:10:06;11.07;;;3.65;;
37305;SDS011;23193;42.656;21.170;2024-03-23T14:12:33;8.35;;;4.25;;
37305;SDS011;23193;42.656;21.170;2024-03-23T14:14:58;12.25;;;3.97;;
37305;SDS011;23193;42.656;21.170;2024-03-23T14:17:25;14.82;;;3.97;;
37305;SDS011;23193;42.656;21.170;2024-03-23T14:19:51;10.13;;;4.40;;
37305;SDS011;23193;42.656;21.170;2024-03-23T14:22:17;8.55;;;4.68;;
37305;SDS011;23193;42.656;21.170;2024-03-23T14:24:45;10.15;;;3.83;;
37305;SDS011;23193;42.656;21.170;2024-03-23T14:27:12;11.60;;;4.75;;
37305;SDS011;23193;42.656;21.170;2024-03-23T14:29:37;14.63;;;4.63;;
37305;SDS011;23193;42.656;21.170;2024-03-23T14:32:04;24.05;;;6.47;;
37305;SDS011;23193;42.656;21.170;2024-03-23T14:34:30;12.52;;;4.53;;
37305;SDS011;23193;42.656;21.170;2024-03-23T14:36:56;15.80;;;4.43;;
37305;SDS011;23193;42.656;21.170;2024-03-23T14:39:23;10.98;;;5.03;;
37305;SDS011;23193;42.656;21.170;2024-03-23T14:41:52;15.57;;;5.00;;
37305;SDS011;23193;42.656;21.170;2024-03-23T14:44:18;10.15;;;4.78;;
37305;SDS011;23193;42.656;21.170;2024-03-23T14:46:44;21.02;;;6.00;;
37305;SDS011;23193;42.656;21.170;2024-03-23T14:49:14;17.77;;;4.40;;
37305;SDS011;23193;42.656;21.170;2024-03-23T14:51:42;8.80;;;4.35;;
37305;SDS011;23193;42.656;21.170;2024-03-23T14:54:08;10.48;;;4.05;;
37305;SDS011;23193;42.656;21.170;2024-03-23T14:56:34;9.43;;;4.25;;
37305;SDS011;23193;42.656;21.170;2024-03-23T14:59:00;15.20;;;4.95;;
37305;SDS011;23193;42.656;21.170;2024-03-23T15:01:27;30.90;;;4.47;;
37305;SDS011;23193;42.656;21.170;2024-03-23T15:03:53;9.70;;;3.78;;
37305;SDS011;23193;42.656;21.170;2024-03-23T15:06:19;8.32;;;4.20;;
37305;SDS011;23193;42.656;21.170;2024-03-23T15:08:45;10.35;;;4.28;;
37305;SDS011;23193;42.656;21.170;2024-03-23T15:11:12;8.15;;;3.78;;
37305;SDS011;23193;42.656;21.170;2024-03-23T15:13:38;11.18;;;5.38;;
37305;SDS011;23193;42.656;21.170;2024-03-23T15:16:04;14.38;;;5.93;;
37305;SDS011;23193;42.656;21.170;2024-03-23T15:18:31;11.45;;;5.38;;